Arian — V2FM3 — position and weather

sailwx.info

Track history (hours):
 
Tides and Currents Weather Stations Pressure Air Temp Water Temp Dewpoint Dewpoint Depression Visibility Wind Speed Wind Dir Waves Ship Positions

Arian

Last reported at 2017-Nov-11 04:10 UTC. Time now 2017-Nov-21 11:46 UTC.
Position N 15°17' W 061°42'.
Warning: this ship's position is 10 days out of date.

Length 161 m; draft 7.8 m.

Type: Ship (hazmat cat A). MMSI: 305720000.

Date/timePositionNaut miles runAvg speedWind from/ knotsBaromVisibWave heightAir tempDewpointWater temp
2017-Nov-11 04:10N 15°17' W 061°42'0 0.9
2017-Nov-11 04:00N 15°17' W 061°41'1 0.6
2017-Nov-11 02:45N 15°18' W 061°41'0 0.5
2017-Nov-11 02:05N 15°18' W 061°40'0 0.6
2017-Nov-11 01:47N 15°18' W 061°40'0 0.7
2017-Nov-11 01:30N 15°18' W 061°40'1 0.8
2017-Nov-11 00:38N 15°18' W 061°39'0 1.0
2017-Nov-11 00:10N 15°18' W 061°39'1 0.9
2017-Nov-10 23:33N 15°18' W 061°38'0 0.6
2017-Nov-10 23:30N 15°18' W 061°38'1 0.6
2017-Nov-10 21:56N 15°19' W 061°37'2 0.8
2017-Nov-10 19:10N 15°18' W 061°35'1 0.9
2017-Nov-10 18:11N 15°17' W 061°35'1 0.9
2017-Nov-10 17:10N 15°17' W 061°34'3211.5
2017-Nov-10 14:21N 14°45' W 061°27'613.9
2017-Nov-10 13:55N 14°39' W 061°24'513.3
2017-Nov-10 13:30N 14°34' W 061°22'813.1
2017-Nov-10 12:53N 14°27' W 061°19'513.1
2017-Nov-10 12:29N 14°22' W 061°17'613.5
2017-Nov-10 12:00N 14°17' W 061°13'713.6
2017-Nov-10 11:28N 14°11' W 061°09'1312.2
2017-Nov-10 10:22N 14°01' W 060°60'0 0.1
2017-Nov-10 09:55N 14°01' W 060°60'0 0.0
2017-Nov-10 08:49N 14°01' W 060°60'0 0.0
2017-Nov-10 06:32N 14°01' W 060°60'0 0.0
2017-Nov-10 06:19N 14°01' W 060°60'0 0.0
2017-Nov-10 05:45N 14°01' W 060°60'0 0.0
2017-Nov-10 05:23N 14°01' W 060°60'0 0.0
2017-Nov-10 04:45N 14°01' W 060°60'0 0.0
2017-Nov-10 04:27N 14°01' W 060°60'0 0.0
2017-Nov-10 03:59N 14°01' W 060°60'0 0.0
2017-Nov-10 03:11N 14°01' W 060°60'0 0.0
2017-Nov-10 02:13N 14°01' W 060°60'0 0.0
2017-Nov-10 01:52N 14°01' W 060°60'0 0.0
2017-Nov-10 00:53N 14°01' W 060°60'17 0.4
2017-Nov-08 05:48N 14°03' W 060°42'516.0
2017-Nov-08 05:30N 14°06' W 060°46'816.4
2017-Nov-08 05:00N 14°12' W 060°52'816.2
2017-Nov-08 04:30N 14°17' W 060°58'815.9
2017-Nov-08 04:00N 14°23' W 061°04'1113.8
2017-Nov-08 03:12N 14°34' W 061°07'212.4
2017-Nov-08 03:01N 14°35' W 061°05'2 3.4
2017-Nov-08 02:31N 14°36' W 061°03'0 0.0
2017-Nov-08 02:00N 14°36' W 061°03'0 0.0
2017-Nov-08 01:27N 14°36' W 061°03'0 0.0
2017-Nov-08 01:00N 14°36' W 061°03'0 0.0
2017-Nov-08 00:30N 14°36' W 061°03'0 0.0
2017-Nov-08 00:00N 14°36' W 061°03'0 0.0
2017-Nov-07 23:30N 14°36' W 061°03'0 0.0
2017-Nov-07 23:00N 14°36' W 061°03'0 0.0
2017-Nov-07 22:30N 14°36' W 061°03'0 0.0
2017-Nov-07 22:00N 14°36' W 061°03'0 0.0
2017-Nov-07 21:27N 14°36' W 061°03'0 0.0
2017-Nov-07 21:00N 14°36' W 061°03'0 0.0
2017-Nov-07 20:30N 14°36' W 061°03'0 0.0
2017-Nov-07 20:00N 14°36' W 061°03'0 0.0
2017-Nov-07 19:30N 14°36' W 061°03'0 0.0
2017-Nov-07 19:00N 14°36' W 061°03'0 0.0
2017-Nov-07 18:30N 14°36' W 061°03'0 0.0
2017-Nov-07 18:00N 14°36' W 061°03'0 0.0
2017-Nov-07 17:27N 14°36' W 061°03'0 0.0
2017-Nov-07 17:00N 14°36' W 061°03'0 0.0
2017-Nov-07 16:30N 14°36' W 061°03'0 0.2
2017-Nov-07 16:01N 14°35' W 061°03'1 2.8
2017-Nov-07 15:30N 14°35' W 061°05'2 3.8
2017-Nov-07 15:00N 14°35' W 061°07'4 8.3
2017-Nov-07 14:31N 14°32' W 061°08'714.1
2017-Nov-07 14:01N 14°25' W 061°10'713.9
2017-Nov-07 13:30N 14°18' W 061°12'  
Track history (hours):
 
Tides and Currents Weather Stations Pressure Air Temp Water Temp Dewpoint Dewpoint Depression Visibility Wind Speed Wind Dir Waves Ship Positions

Arian

Last reported at 2017-Nov-11 04:10 UTC. Time now 2017-Nov-21 11:46 UTC.
Position N 15°17' W 061°42'.
Warning: this ship's position is 10 days out of date.

Length 161 m; draft 7.8 m.

Type: Ship (hazmat cat A). MMSI: 305720000.

Date/timePositionNaut miles runAvg speedWind from/ knotsBaromVisibWave heightAir tempDewpointWater temp
2017-Nov-11 04:10N 15°17' W 061°42'0 0.9
2017-Nov-11 04:00N 15°17' W 061°41'1 0.6
2017-Nov-11 02:45N 15°18' W 061°41'0 0.5
2017-Nov-11 02:05N 15°18' W 061°40'0 0.6
2017-Nov-11 01:47N 15°18' W 061°40'0 0.7
2017-Nov-11 01:30N 15°18' W 061°40'1 0.8
2017-Nov-11 00:38N 15°18' W 061°39'0 1.0
2017-Nov-11 00:10N 15°18' W 061°39'1 0.9
2017-Nov-10 23:33N 15°18' W 061°38'0 0.6
2017-Nov-10 23:30N 15°18' W 061°38'1 0.6
2017-Nov-10 21:56N 15°19' W 061°37'2 0.8
2017-Nov-10 19:10N 15°18' W 061°35'1 0.9
2017-Nov-10 18:11N 15°17' W 061°35'1 0.9
2017-Nov-10 17:10N 15°17' W 061°34'3211.5
2017-Nov-10 14:21N 14°45' W 061°27'613.9
2017-Nov-10 13:55N 14°39' W 061°24'513.3
2017-Nov-10 13:30N 14°34' W 061°22'813.1
2017-Nov-10 12:53N 14°27' W 061°19'513.1
2017-Nov-10 12:29N 14°22' W 061°17'613.5
2017-Nov-10 12:00N 14°17' W 061°13'713.6
2017-Nov-10 11:28N 14°11' W 061°09'1312.2
2017-Nov-10 10:22N 14°01' W 060°60'0 0.1
2017-Nov-10 09:55N 14°01' W 060°60'0 0.0
2017-Nov-10 08:49N 14°01' W 060°60'0 0.0
2017-Nov-10 06:32N 14°01' W 060°60'0 0.0
2017-Nov-10 06:19N 14°01' W 060°60'0 0.0
2017-Nov-10 05:45N 14°01' W 060°60'0 0.0
2017-Nov-10 05:23N 14°01' W 060°60'0 0.0
2017-Nov-10 04:45N 14°01' W 060°60'0 0.0
2017-Nov-10 04:27N 14°01' W 060°60'0 0.0
2017-Nov-10 03:59N 14°01' W 060°60'0 0.0
2017-Nov-10 03:11N 14°01' W 060°60'0 0.0
2017-Nov-10 02:13N 14°01' W 060°60'0 0.0
2017-Nov-10 01:52N 14°01' W 060°60'0 0.0
2017-Nov-10 00:53N 14°01' W 060°60'17 0.4
2017-Nov-08 05:48N 14°03' W 060°42'516.0
2017-Nov-08 05:30N 14°06' W 060°46'816.4
2017-Nov-08 05:00N 14°12' W 060°52'816.2
2017-Nov-08 04:30N 14°17' W 060°58'815.9
2017-Nov-08 04:00N 14°23' W 061°04'1113.8
2017-Nov-08 03:12N 14°34' W 061°07'212.4
2017-Nov-08 03:01N 14°35' W 061°05'2 3.4
2017-Nov-08 02:31N 14°36' W 061°03'0 0.0
2017-Nov-08 02:00N 14°36' W 061°03'0 0.0
2017-Nov-08 01:27N 14°36' W 061°03'0 0.0
2017-Nov-08 01:00N 14°36' W 061°03'0 0.0
2017-Nov-08 00:30N 14°36' W 061°03'0 0.0
2017-Nov-08 00:00N 14°36' W 061°03'0 0.0
2017-Nov-07 23:30N 14°36' W 061°03'0 0.0
2017-Nov-07 23:00N 14°36' W 061°03'0 0.0
2017-Nov-07 22:30N 14°36' W 061°03'0 0.0
2017-Nov-07 22:00N 14°36' W 061°03'0 0.0
2017-Nov-07 21:27N 14°36' W 061°03'0 0.0
2017-Nov-07 21:00N 14°36' W 061°03'0 0.0
2017-Nov-07 20:30N 14°36' W 061°03'0 0.0
2017-Nov-07 20:00N 14°36' W 061°03'0 0.0
2017-Nov-07 19:30N 14°36' W 061°03'0 0.0
2017-Nov-07 19:00N 14°36' W 061°03'0 0.0
2017-Nov-07 18:30N 14°36' W 061°03'0 0.0
2017-Nov-07 18:00N 14°36' W 061°03'0 0.0
2017-Nov-07 17:27N 14°36' W 061°03'0 0.0
2017-Nov-07 17:00N 14°36' W 061°03'0 0.0
2017-Nov-07 16:30N 14°36' W 061°03'0 0.2
2017-Nov-07 16:01N 14°35' W 061°03'1 2.8
2017-Nov-07 15:30N 14°35' W 061°05'2 3.8
2017-Nov-07 15:00N 14°35' W 061°07'4 8.3
2017-Nov-07 14:31N 14°32' W 061°08'714.1
2017-Nov-07 14:01N 14°25' W 061°10'713.9
2017-Nov-07 13:30N 14°18' W 061°12'  

Dump ship's entire track history